createdAt,value
2022-11-25T00:00:54.639Z,1009.71
2022-11-25T00:01:54.828Z,1009.66
2022-11-25T00:02:55.084Z,1009.69
2022-11-25T00:03:55.106Z,1009.68
2022-11-25T00:04:55.273Z,1009.72
2022-11-25T00:05:55.410Z,1009.71
2022-11-25T00:06:55.567Z,1009.69
2022-11-25T00:07:55.792Z,1009.70
2022-11-25T00:08:55.845Z,1009.70
2022-11-25T00:09:56.021Z,1009.71
2022-11-25T00:10:56.051Z,1009.69
2022-11-25T00:11:56.188Z,1009.68
2022-11-25T00:12:56.336Z,1009.69
2022-11-25T00:13:56.489Z,1009.69
2022-11-25T00:14:56.675Z,1009.67
2022-11-25T00:15:56.703Z,1009.69
2022-11-25T00:16:56.884Z,1009.68
2022-11-25T00:17:56.999Z,1009.67
2022-11-25T00:18:57.148Z,1009.65
2022-11-25T00:19:57.312Z,1009.64
2022-11-25T00:20:57.491Z,1009.63
2022-11-25T00:21:57.518Z,1009.61
2022-11-25T00:22:57.670Z,1009.61
2022-11-25T00:23:57.818Z,1009.62
2022-11-25T00:24:57.980Z,1009.65
2022-11-25T00:25:58.184Z,1009.64
2022-11-25T00:26:58.221Z,1009.68
2022-11-25T00:27:58.390Z,1009.68
2022-11-25T00:28:58.528Z,1009.69
2022-11-25T00:29:58.697Z,1009.64
2022-11-25T00:30:58.834Z,1009.62
2022-11-25T00:31:59.031Z,1009.63
2022-11-25T00:32:59.043Z,1009.65
2022-11-25T00:33:59.250Z,1009.65
2022-11-25T00:34:59.281Z,1009.66
2022-11-25T00:35:59.428Z,1009.67
2022-11-25T00:36:59.570Z,1009.63
2022-11-25T00:37:59.722Z,1009.67
2022-11-25T00:38:59.858Z,1009.70
2022-11-25T00:40:00.030Z,1009.74
2022-11-25T00:41:00.178Z,1009.72
2022-11-25T00:42:00.324Z,1009.74
2022-11-25T00:43:00.460Z,1009.74
2022-11-25T00:44:00.616Z,1009.72
2022-11-25T00:45:00.810Z,1009.71
2022-11-25T00:46:00.900Z,1009.72
2022-11-25T00:47:00.913Z,1009.71
2022-11-25T00:48:01.054Z,1009.72
2022-11-25T00:49:01.187Z,1009.75
2022-11-25T00:50:01.369Z,1009.76
2022-11-25T00:51:01.517Z,1009.75
2022-11-25T00:52:01.656Z,1009.76
2022-11-25T00:53:01.800Z,1009.77
2022-11-25T00:54:01.947Z,1009.76
2022-11-25T00:55:02.109Z,1009.78
2022-11-25T00:56:02.261Z,1009.79
2022-11-25T00:57:02.402Z,1009.84
2022-11-25T00:58:02.561Z,1009.79
2022-11-25T00:59:02.706Z,1009.82
2022-11-25T01:00:02.857Z,1009.81
2022-11-25T01:01:03.026Z,1009.82
2022-11-25T01:02:03.133Z,1009.81
2022-11-25T01:03:03.165Z,1009.78
2022-11-25T01:04:03.317Z,1009.76
2022-11-25T01:05:03.490Z,1009.77
2022-11-25T01:06:03.659Z,1009.73
2022-11-25T01:07:03.809Z,1009.72
2022-11-25T01:08:03.962Z,1009.73
2022-11-25T01:09:04.107Z,1009.76
2022-11-25T01:10:04.276Z,1009.75
2022-11-25T01:11:04.411Z,1009.73
2022-11-25T01:12:04.560Z,1009.74
2022-11-25T01:13:04.699Z,1009.69
2022-11-25T01:14:04.835Z,1009.70
2022-11-25T01:15:05.055Z,1009.73
2022-11-25T01:16:05.130Z,1009.75
2022-11-25T01:17:05.158Z,1009.70
2022-11-25T01:18:05.307Z,1009.71
2022-11-25T01:19:05.445Z,1009.72
2022-11-25T01:20:05.603Z,1009.74
2022-11-25T01:21:05.753Z,1009.72
2022-11-25T01:22:05.901Z,1009.74
2022-11-25T01:23:06.035Z,1009.72
2022-11-25T01:24:06.188Z,1009.71
2022-11-25T01:25:06.341Z,1009.71
2022-11-25T01:26:06.488Z,1009.67
2022-11-25T01:27:06.658Z,1009.71
2022-11-25T01:28:06.821Z,1009.71
2022-11-25T01:29:06.979Z,1009.70
2022-11-25T01:30:07.153Z,1009.70
2022-11-25T01:31:07.211Z,1009.71
2022-11-25T01:32:07.421Z,1009.65
2022-11-25T01:33:07.441Z,1009.67
2022-11-25T01:34:07.588Z,1009.63
2022-11-25T01:35:07.751Z,1009.62
2022-11-25T01:36:07.904Z,1009.66
2022-11-25T01:37:08.034Z,1009.61
2022-11-25T01:38:08.180Z,1009.62
2022-11-25T01:39:08.318Z,1009.63
2022-11-25T01:40:08.469Z,1009.61
2022-11-25T01:41:08.610Z,1009.65
2022-11-25T01:42:08.795Z,1009.63
2022-11-25T01:43:08.820Z,1009.62
2022-11-25T01:44:08.978Z,1009.60
2022-11-25T01:45:09.122Z,1009.60
2022-11-25T01:46:09.307Z,1009.63
2022-11-25T01:47:09.387Z,1009.61
2022-11-25T01:48:09.547Z,1009.63
2022-11-25T01:49:09.686Z,1009.65
2022-11-25T01:50:09.862Z,1009.63
2022-11-25T01:51:10.006Z,1009.62
2022-11-25T01:52:10.149Z,1009.66
2022-11-25T01:53:10.284Z,1009.64
2022-11-25T01:54:10.434Z,1009.62
2022-11-25T01:55:10.596Z,1009.63
2022-11-25T01:56:10.766Z,1009.59
2022-11-25T01:57:10.804Z,1009.55
2022-11-25T01:58:10.967Z,1009.54
2022-11-25T01:59:11.110Z,1009.55
2022-11-25T02:00:11.273Z,1009.49
2022-11-25T02:01:11.362Z,1009.47
2022-11-25T02:02:11.466Z,1009.45
2022-11-25T02:03:11.483Z,1009.40
2022-11-25T02:04:11.629Z,1009.40
2022-11-25T02:05:11.783Z,1009.37
2022-11-25T02:06:11.920Z,1009.42
2022-11-25T02:07:12.138Z,1009.38
2022-11-25T02:08:12.151Z,1009.37
2022-11-25T02:09:12.293Z,1009.37
2022-11-25T02:10:12.464Z,1009.35
2022-11-25T02:11:12.602Z,1009.30
2022-11-25T02:12:12.741Z,1009.29
2022-11-25T02:13:12.868Z,1009.27
2022-11-25T02:14:13.014Z,1009.30
2022-11-25T02:15:13.166Z,1009.28
2022-11-25T02:16:13.366Z,1009.33
2022-11-25T02:17:13.398Z,1009.33
2022-11-25T02:18:13.573Z,1009.36
2022-11-25T02:19:13.602Z,1009.39
2022-11-25T02:20:13.757Z,1009.40
2022-11-25T02:21:13.823Z,1009.36
2022-11-25T02:22:13.899Z,1009.41
2022-11-25T02:23:14.041Z,1009.39
2022-11-25T02:24:14.189Z,1009.37
2022-11-25T02:25:14.347Z,1009.36
2022-11-25T02:26:14.508Z,1009.41
2022-11-25T02:27:14.656Z,1009.42
2022-11-25T02:28:14.805Z,1009.41
2022-11-25T02:29:14.945Z,1009.40
2022-11-25T02:30:15.114Z,1009.43
2022-11-25T02:31:15.164Z,1009.46
2022-11-25T02:32:15.298Z,1009.47
2022-11-25T02:33:15.453Z,1009.48
2022-11-25T02:34:15.603Z,1009.45
2022-11-25T02:35:15.773Z,1009.46
2022-11-25T02:36:15.931Z,1009.50
2022-11-25T02:37:16.111Z,1009.47
2022-11-25T02:38:16.260Z,1009.46
2022-11-25T02:39:16.407Z,1009.49
2022-11-25T02:40:16.560Z,1009.50
2022-11-25T02:41:16.713Z,1009.52
2022-11-25T02:42:16.858Z,1009.51
2022-11-25T02:43:16.997Z,1009.53
2022-11-25T02:44:17.150Z,1009.53
2022-11-25T02:45:17.314Z,1009.55
2022-11-25T02:46:21.846Z,1009.57
2022-11-25T02:47:17.567Z,1009.58
2022-11-25T02:48:17.724Z,1009.52
2022-11-25T02:49:17.873Z,1009.53
2022-11-25T02:50:18.038Z,1009.50
2022-11-25T02:51:18.185Z,1009.46
2022-11-25T02:52:18.344Z,1009.45
2022-11-25T02:53:18.484Z,1009.45
2022-11-25T02:54:18.645Z,1009.44
2022-11-25T02:55:18.798Z,1009.46
2022-11-25T02:56:18.968Z,1009.46
2022-11-25T02:57:19.127Z,1009.50
2022-11-25T02:58:19.292Z,1009.51
2022-11-25T02:59:19.441Z,1009.49
2022-11-25T03:00:19.594Z,1009.55
2022-11-25T03:01:19.841Z,1009.57
2022-11-25T03:02:19.929Z,1009.58
2022-11-25T03:03:19.935Z,1009.60
2022-11-25T03:04:20.093Z,1009.61
2022-11-25T03:05:20.255Z,1009.63
2022-11-25T03:06:20.413Z,1009.66
2022-11-25T03:07:20.635Z,1009.65
2022-11-25T03:08:20.684Z,1009.64
2022-11-25T03:09:20.832Z,1009.62
2022-11-25T03:10:20.992Z,1009.64
2022-11-25T03:11:21.171Z,1009.64
2022-11-25T03:12:21.253Z,1009.69
2022-11-25T03:13:21.303Z,1009.69
2022-11-25T03:14:21.453Z,1009.69
2022-11-25T03:15:21.559Z,1009.75
2022-11-25T03:16:21.739Z,1009.74
2022-11-25T03:17:21.870Z,1009.71
2022-11-25T03:18:22.020Z,1009.69
2022-11-25T03:19:22.157Z,1009.68
2022-11-25T03:20:22.317Z,1009.73
2022-11-25T03:21:22.445Z,1009.70
2022-11-25T03:22:22.640Z,1009.71
2022-11-25T03:23:22.674Z,1009.72
2022-11-25T03:24:22.818Z,1009.71
2022-11-25T03:25:22.967Z,1009.70
2022-11-25T03:26:23.127Z,1009.66
2022-11-25T03:27:23.278Z,1009.69
2022-11-25T03:28:23.453Z,1009.65
2022-11-25T03:29:23.608Z,1009.65
2022-11-25T03:30:23.767Z,1009.68
2022-11-25T03:31:23.956Z,1009.67
2022-11-25T03:32:24.007Z,1009.63
2022-11-25T03:33:31.152Z,1009.63
2022-11-25T03:34:24.291Z,1009.62
2022-11-25T03:35:24.432Z,1009.60
2022-11-25T03:36:24.590Z,1009.60
2022-11-25T03:37:24.854Z,1009.61
2022-11-25T03:38:24.833Z,1009.56
2022-11-25T03:39:24.970Z,1009.61
2022-11-25T03:40:25.135Z,1009.63
2022-11-25T03:41:25.272Z,1009.61
2022-11-25T03:42:25.436Z,1009.62
2022-11-25T03:43:25.574Z,1009.68
2022-11-25T03:44:25.722Z,1009.67
2022-11-25T03:45:25.873Z,1009.67
2022-11-25T03:46:26.137Z,1009.68
2022-11-25T03:47:26.080Z,1009.72
2022-11-25T03:48:26.230Z,1009.72
2022-11-25T03:49:26.371Z,1009.73
2022-11-25T03:50:26.531Z,1009.68
2022-11-25T03:51:26.659Z,1009.71
2022-11-25T03:52:26.818Z,1009.67
2022-11-25T03:53:26.950Z,1009.66
2022-11-25T03:54:27.114Z,1009.67
2022-11-25T03:55:27.225Z,1009.68
2022-11-25T03:56:27.355Z,1009.65
2022-11-25T03:57:27.491Z,1009.65
2022-11-25T03:58:27.630Z,1009.63
2022-11-25T03:59:27.758Z,1009.65
2022-11-25T04:00:27.922Z,1009.65
2022-11-25T04:01:28.162Z,1009.61
2022-11-25T04:02:28.246Z,1009.62
2022-11-25T04:03:28.251Z,1009.62
2022-11-25T04:04:28.388Z,1009.63
2022-11-25T04:05:28.531Z,1009.63
2022-11-25T04:06:28.673Z,1009.62
2022-11-25T04:07:28.905Z,1009.64
2022-11-25T04:08:28.930Z,1009.71
2022-11-25T04:09:29.073Z,1009.73
2022-11-25T04:10:29.210Z,1009.77
2022-11-25T04:11:29.343Z,1009.80
2022-11-25T04:12:29.496Z,1009.78
2022-11-25T04:13:29.640Z,1009.80
2022-11-25T04:14:29.768Z,1009.85
2022-11-25T04:15:29.927Z,1009.83
2022-11-25T04:16:30.112Z,1009.81
2022-11-25T04:17:30.190Z,1009.84
2022-11-25T04:18:30.220Z,1009.81
2022-11-25T04:19:30.380Z,1009.82
2022-11-25T04:20:30.529Z,1009.83
2022-11-25T04:21:30.676Z,1009.80
2022-11-25T04:22:30.829Z,1009.81
2022-11-25T04:23:30.959Z,1009.80
2022-11-25T04:24:31.113Z,1009.79
2022-11-25T04:25:31.252Z,1009.80
2022-11-25T04:26:31.393Z,1009.80
2022-11-25T04:27:31.527Z,1009.85
2022-11-25T04:28:31.665Z,1009.84
2022-11-25T04:29:31.832Z,1009.83
2022-11-25T04:30:31.997Z,1009.81
2022-11-25T04:31:32.126Z,1009.84
2022-11-25T04:32:32.286Z,1009.82
2022-11-25T04:33:32.417Z,1009.84
2022-11-25T04:34:32.574Z,1009.78
2022-11-25T04:35:32.677Z,1009.77
2022-11-25T04:36:32.811Z,1009.78
2022-11-25T04:37:32.954Z,1009.76
2022-11-25T04:38:33.090Z,1009.76
2022-11-25T04:39:33.228Z,1009.79
2022-11-25T04:40:33.359Z,1009.78
2022-11-25T04:41:33.583Z,1009.81
2022-11-25T04:42:33.631Z,1009.83
2022-11-25T04:43:33.769Z,1009.77
2022-11-25T04:44:34.261Z,1009.79
2022-11-25T04:45:51.860Z,1009.83
2022-11-25T04:46:35.156Z,1009.80
2022-11-25T04:47:34.185Z,1009.83
2022-11-25T04:48:34.312Z,1009.79
2022-11-25T04:49:34.452Z,1009.83
2022-11-25T04:50:34.586Z,1009.85
2022-11-25T04:51:34.728Z,1009.86
2022-11-25T04:52:34.870Z,1009.90
2022-11-25T04:53:35.019Z,1009.90
2022-11-25T04:54:35.373Z,1009.91
2022-11-25T04:55:35.310Z,1009.88
2022-11-25T04:56:35.456Z,1009.86
2022-11-25T04:57:35.621Z,1009.88
2022-11-25T04:58:35.769Z,1009.86
2022-11-25T04:59:35.908Z,1009.85
2022-11-25T05:00:35.974Z,1009.86
2022-11-25T05:01:36.125Z,1009.87
2022-11-25T05:02:36.221Z,1009.87
2022-11-25T05:03:36.334Z,1009.86
2022-11-25T05:04:36.771Z,1009.85
2022-11-25T05:05:36.620Z,1009.85
2022-11-25T05:06:36.719Z,1009.87
2022-11-25T05:07:36.967Z,1009.92
2022-11-25T05:08:37.025Z,1009.92
2022-11-25T05:09:37.065Z,1009.95
2022-11-25T05:10:37.205Z,1009.94
2022-11-25T05:11:37.367Z,1009.95
2022-11-25T05:12:37.502Z,1009.96
2022-11-25T05:13:37.660Z,1009.94
2022-11-25T05:14:37.981Z,1009.91
2022-11-25T05:15:37.904Z,1009.92
2022-11-25T05:16:38.093Z,1009.89
2022-11-25T05:17:38.134Z,1009.89
2022-11-25T05:18:38.292Z,1009.89
2022-11-25T05:19:38.455Z,1009.93
2022-11-25T05:20:38.601Z,1009.95
2022-11-25T05:21:38.753Z,1009.93
2022-11-25T05:22:38.893Z,1010.00
2022-11-25T05:23:39.081Z,1009.98
2022-11-25T05:24:39.110Z,1010.03
2022-11-25T05:25:39.267Z,1009.99
2022-11-25T05:26:39.380Z,1010.01
2022-11-25T05:27:39.545Z,1010.00
2022-11-25T05:28:39.730Z,1010.01
2022-11-25T05:29:39.780Z,1009.97
2022-11-25T05:30:40.018Z,1009.95
2022-11-25T05:31:40.060Z,1009.99
2022-11-25T05:32:40.203Z,1009.97
2022-11-25T05:33:40.379Z,1010.00
2022-11-25T05:34:40.519Z,1010.04
2022-11-25T05:35:40.698Z,1010.05
2022-11-25T05:36:40.743Z,1010.07
2022-11-25T05:37:40.896Z,1010.10
2022-11-25T05:38:41.063Z,1010.09
2022-11-25T05:39:41.104Z,1010.10
2022-11-25T05:40:41.271Z,1010.12
2022-11-25T05:41:41.419Z,1010.11
2022-11-25T05:42:41.558Z,1010.12
2022-11-25T05:43:41.764Z,1010.11
2022-11-25T05:44:41.794Z,1010.12
2022-11-25T05:45:41.990Z,1010.15
2022-11-25T05:46:42.040Z,1010.11
2022-11-25T05:47:42.121Z,1010.15
2022-11-25T05:48:42.248Z,1010.12
2022-11-25T05:49:42.416Z,1010.14
2022-11-25T05:50:42.554Z,1010.14
2022-11-25T05:51:42.707Z,1010.10
2022-11-25T05:52:42.875Z,1010.13
2022-11-25T05:53:43.043Z,1010.15
2022-11-25T05:54:43.078Z,1010.17
2022-11-25T05:55:43.241Z,1010.14
2022-11-25T05:56:43.381Z,1010.15
2022-11-25T05:57:43.551Z,1010.12
2022-11-25T05:58:43.609Z,1010.14
2022-11-25T05:59:43.703Z,1010.11
2022-11-25T06:00:43.751Z,1010.09
2022-11-25T06:01:43.912Z,1010.07
2022-11-25T06:02:44.252Z,1010.06
2022-11-25T06:03:44.181Z,1010.04
2022-11-25T06:04:44.251Z,1010.06
2022-11-25T06:05:45.139Z,1010.02
2022-11-25T06:06:44.363Z,1009.99
2022-11-25T06:07:45.057Z,1010.03
2022-11-25T06:08:44.619Z,1010.04
2022-11-25T06:09:44.776Z,1010.06
2022-11-25T06:10:44.932Z,1010.03
2022-11-25T06:11:45.088Z,1010.02
2022-11-25T06:12:45.251Z,1010.01
2022-11-25T06:13:45.427Z,1010.03
2022-11-25T06:14:45.984Z,1010.04
2022-11-25T06:15:45.576Z,1010.05
2022-11-25T06:16:46.147Z,1010.07
2022-11-25T06:17:45.736Z,1010.04
2022-11-25T06:18:45.904Z,1010.10
2022-11-25T06:19:45.974Z,1010.10
2022-11-25T06:20:46.012Z,1010.08
2022-11-25T06:21:46.186Z,1010.12
2022-11-25T06:22:46.345Z,1010.07
2022-11-25T06:23:46.554Z,1010.08
2022-11-25T06:24:52.944Z,1010.03
2022-11-25T06:25:47.754Z,1010.02
2022-11-25T06:26:46.813Z,1010.06
2022-11-25T06:28:11.354Z,1010.07
2022-11-25T06:28:48.127Z,1010.10
2022-11-25T06:29:47.255Z,1010.06
2022-11-25T06:30:47.383Z,1010.04
2022-11-25T06:31:47.462Z,1010.07
2022-11-25T06:32:47.574Z,1010.11
2022-11-25T06:33:47.706Z,1010.09
2022-11-25T06:34:47.806Z,1010.11
2022-11-25T06:35:47.911Z,1010.08
2022-11-25T06:36:48.037Z,1010.11
2022-11-25T06:37:48.140Z,1010.13
2022-11-25T06:38:48.240Z,1010.10
2022-11-25T06:39:48.357Z,1010.12
2022-11-25T06:40:49.399Z,1010.11
2022-11-25T06:41:48.749Z,1010.10
2022-11-25T06:42:48.704Z,1010.09
2022-11-25T06:43:48.848Z,1010.09
2022-11-25T06:44:49.003Z,1010.09
2022-11-25T06:45:49.108Z,1010.09
2022-11-25T06:46:49.325Z,1010.13
2022-11-25T06:47:49.329Z,1010.16
2022-11-25T06:48:49.429Z,1010.21
2022-11-25T06:49:53.313Z,1010.20
2022-11-25T06:50:49.702Z,1010.22
2022-11-25T06:51:49.829Z,1010.24
2022-11-25T06:52:49.936Z,1010.23
2022-11-25T06:53:50.102Z,1010.23
2022-11-25T06:54:50.226Z,1010.21
2022-11-25T06:55:50.371Z,1010.24
2022-11-25T06:56:50.477Z,1010.26
2022-11-25T06:57:53.328Z,1010.27
2022-11-25T06:58:51.750Z,1010.30
2022-11-25T06:59:50.834Z,1010.31
2022-11-25T07:00:51.690Z,1010.35
2022-11-25T07:01:51.081Z,1010.44
2022-11-25T07:02:51.190Z,1010.49
2022-11-25T07:03:51.292Z,1010.44
2022-11-25T07:04:52.414Z,1010.38
2022-11-25T07:05:51.518Z,1010.38
2022-11-25T07:06:51.641Z,1010.43
2022-11-25T07:07:51.849Z,1010.44
2022-11-25T07:08:53.633Z,1010.48
2022-11-25T07:09:51.970Z,1010.42
2022-11-25T07:10:52.074Z,1010.46
2022-11-25T07:11:53.030Z,1010.49
2022-11-25T07:12:52.320Z,1010.51
2022-11-25T07:13:52.526Z,1010.52
2022-11-25T07:14:52.580Z,1010.57
2022-11-25T07:15:52.750Z,1010.57
2022-11-25T07:16:52.867Z,1010.62
2022-11-25T07:17:52.978Z,1010.63
2022-11-25T07:18:53.099Z,1010.62
2022-11-25T07:19:53.218Z,1010.68
2022-11-25T07:20:53.321Z,1010.68
2022-11-25T07:21:53.449Z,1010.73
2022-11-25T07:22:53.557Z,1010.74
2022-11-25T07:23:53.683Z,1010.72
2022-11-25T07:24:53.754Z,1010.69
2022-11-25T07:25:53.857Z,1010.70
2022-11-25T07:26:53.929Z,1010.71
2022-11-25T07:27:54.038Z,1010.71
2022-11-25T07:28:54.203Z,1010.73
2022-11-25T07:30:19.125Z,1010.75
2022-11-25T07:31:22.787Z,1010.75
2022-11-25T07:31:55.387Z,1010.71
2022-11-25T07:32:54.524Z,1010.74
2022-11-25T07:33:54.644Z,1010.73
2022-11-25T07:34:54.707Z,1010.73
2022-11-25T07:35:54.772Z,1010.69
2022-11-25T07:36:54.815Z,1010.73
2022-11-25T07:37:54.980Z,1010.76
2022-11-25T07:38:55.107Z,1010.73
2022-11-25T07:39:55.645Z,1010.75
2022-11-25T07:40:56.368Z,1010.77
2022-11-25T07:41:55.391Z,1010.79
2022-11-25T07:42:55.529Z,1010.76
2022-11-25T07:43:55.683Z,1010.76
2022-11-25T07:44:55.797Z,1010.72
2022-11-25T07:45:55.949Z,1010.70
2022-11-25T07:46:56.168Z,1010.71
2022-11-25T07:47:56.178Z,1010.72
2022-11-25T07:48:56.309Z,1010.68
2022-11-25T07:49:56.454Z,1010.66
2022-11-25T07:50:56.448Z,1010.62
2022-11-25T07:51:56.565Z,1010.62
2022-11-25T07:52:56.695Z,1010.57
2022-11-25T07:53:56.828Z,1010.56
2022-11-25T07:54:56.933Z,1010.60
2022-11-25T07:55:57.070Z,1010.58
2022-11-25T07:56:57.048Z,1010.60
2022-11-25T07:57:57.152Z,1010.57
2022-11-25T07:58:57.256Z,1010.59
2022-11-25T07:59:57.412Z,1010.55
2022-11-25T08:00:57.409Z,1010.59
2022-11-25T08:01:57.628Z,1010.60
2022-11-25T08:02:57.669Z,1010.50
2022-11-25T08:03:57.683Z,1010.52
2022-11-25T08:04:57.769Z,1010.53
2022-11-25T08:05:57.974Z,1010.48
2022-11-25T08:06:57.920Z,1010.47
2022-11-25T08:07:58.024Z,1010.48
2022-11-25T08:08:58.111Z,1010.54
2022-11-25T08:09:58.193Z,1010.58
2022-11-25T08:10:58.247Z,1010.53
2022-11-25T08:11:58.330Z,1010.60
2022-11-25T08:12:58.446Z,1010.64
2022-11-25T08:13:58.586Z,1010.64
2022-11-25T08:14:58.557Z,1010.63
2022-11-25T08:15:58.698Z,1010.64
2022-11-25T08:16:59.276Z,1010.67
2022-11-25T08:17:58.675Z,1010.64
2022-11-25T08:18:58.769Z,1010.68
2022-11-25T08:19:58.847Z,1010.68
2022-11-25T08:20:58.953Z,1010.64
2022-11-25T08:21:58.923Z,1010.71
2022-11-25T08:22:59.006Z,1010.69
2022-11-25T08:23:59.100Z,1010.70
2022-11-25T08:24:59.150Z,1010.76
2022-11-25T08:25:59.228Z,1010.76
2022-11-25T08:26:59.324Z,1010.74
2022-11-25T08:27:59.374Z,1010.75
2022-11-25T08:28:59.463Z,1010.76
2022-11-25T08:29:59.562Z,1010.73
2022-11-25T08:30:59.677Z,1010.76
2022-11-25T08:31:59.753Z,1010.78
2022-11-25T08:32:59.802Z,1010.78
2022-11-25T08:33:59.900Z,1010.75
2022-11-25T08:34:59.959Z,1010.79
2022-11-25T08:36:00.022Z,1010.78
2022-11-25T08:37:00.114Z,1010.73
2022-11-25T08:38:00.179Z,1010.75
2022-11-25T08:39:00.335Z,1010.78
2022-11-25T08:40:01.042Z,1010.81
2022-11-25T08:41:00.370Z,1010.88
2022-11-25T08:42:00.469Z,1010.86
2022-11-25T08:43:00.544Z,1010.84
2022-11-25T08:44:00.668Z,1010.84
2022-11-25T08:45:00.717Z,1010.87
2022-11-25T08:46:00.865Z,1010.87
2022-11-25T08:47:00.946Z,1010.86
2022-11-25T08:48:00.891Z,1010.84
2022-11-25T08:49:00.953Z,1010.80
2022-11-25T08:50:01.021Z,1010.78
2022-11-25T08:51:01.089Z,1010.79
2022-11-25T08:52:01.177Z,1010.76
2022-11-25T08:53:01.260Z,1010.79
2022-11-25T08:54:01.388Z,1010.83
2022-11-25T08:55:01.476Z,1010.77
2022-11-25T08:56:01.550Z,1010.85
2022-11-25T08:57:01.654Z,1010.85
2022-11-25T08:58:02.292Z,1010.86
2022-11-25T08:59:01.849Z,1010.81
2022-11-25T09:00:01.914Z,1010.80
2022-11-25T09:01:02.006Z,1010.76
2022-11-25T09:02:02.157Z,1010.79
2022-11-25T09:03:04.322Z,1010.83
2022-11-25T09:04:02.237Z,1010.85
2022-11-25T09:05:02.361Z,1010.82
2022-11-25T09:06:02.427Z,1010.84
2022-11-25T09:07:02.528Z,1010.89
2022-11-25T09:08:02.649Z,1010.88
2022-11-25T09:09:02.643Z,1010.87
2022-11-25T09:10:02.710Z,1010.93
2022-11-25T09:11:02.922Z,1010.91
2022-11-25T09:12:02.902Z,1010.88
2022-11-25T09:13:02.979Z,1010.90
2022-11-25T09:14:03.178Z,1010.84
2022-11-25T09:15:03.191Z,1010.88
2022-11-25T09:16:03.374Z,1010.89
2022-11-25T09:17:03.380Z,1010.94
2022-11-25T09:18:03.455Z,1010.94
2022-11-25T09:19:03.563Z,1010.95
2022-11-25T09:20:03.656Z,1010.90
2022-11-25T09:21:03.779Z,1010.95
2022-11-25T09:22:03.810Z,1010.98
2022-11-25T09:23:03.886Z,1010.94
2022-11-25T09:24:03.992Z,1010.92
2022-11-25T09:25:04.631Z,1010.95
2022-11-25T09:26:04.142Z,1010.92
2022-11-25T09:27:04.238Z,1010.94
2022-11-25T09:28:04.352Z,1010.92
2022-11-25T09:29:04.452Z,1010.93
2022-11-25T09:30:04.536Z,1010.93
2022-11-25T09:31:04.727Z,1010.91
2022-11-25T09:32:04.713Z,1010.90
2022-11-25T09:33:04.783Z,1010.91
2022-11-25T09:34:11.862Z,1010.90
2022-11-25T09:35:04.946Z,1010.93
2022-11-25T09:36:05.013Z,1010.86
2022-11-25T09:37:05.098Z,1010.87
2022-11-25T09:38:05.147Z,1010.93
2022-11-25T09:39:05.215Z,1010.89
2022-11-25T09:40:05.294Z,1010.89
2022-11-25T09:41:05.383Z,1010.93
2022-11-25T09:42:05.447Z,1010.92
2022-11-25T09:43:05.514Z,1010.88
2022-11-25T09:44:05.563Z,1010.86
2022-11-25T09:45:05.622Z,1010.91
2022-11-25T09:46:05.720Z,1010.88
2022-11-25T09:47:05.756Z,1010.82
2022-11-25T09:48:05.794Z,1010.78
2022-11-25T09:49:05.840Z,1010.82
2022-11-25T09:50:05.888Z,1010.70
2022-11-25T09:51:05.955Z,1010.75
2022-11-25T09:52:05.975Z,1010.69
2022-11-25T09:53:06.001Z,1010.72
2022-11-25T09:54:06.030Z,1010.69
2022-11-25T09:55:06.063Z,1010.61
2022-11-25T09:56:06.077Z,1010.63
2022-11-25T09:57:06.111Z,1010.58
2022-11-25T09:58:06.121Z,1010.65
2022-11-25T09:59:06.143Z,1010.63
2022-11-25T10:00:06.180Z,1010.62
2022-11-25T10:01:06.197Z,1010.65
2022-11-25T10:02:06.252Z,1010.60
2022-11-25T10:03:06.337Z,1010.53
2022-11-25T10:04:06.233Z,1010.55
2022-11-25T10:05:06.274Z,1010.54
2022-11-25T10:06:06.368Z,1010.53
2022-11-25T10:07:06.284Z,1010.51
2022-11-25T10:08:06.294Z,1010.56
2022-11-25T10:09:06.308Z,1010.55
2022-11-25T10:10:06.352Z,1010.52
2022-11-25T10:11:06.358Z,1010.53
2022-11-25T10:12:06.378Z,1010.50
2022-11-25T10:13:06.393Z,1010.52
2022-11-25T10:14:06.392Z,1010.55
2022-11-25T10:15:06.427Z,1010.52
2022-11-25T10:16:06.487Z,1010.62
2022-11-25T10:17:06.453Z,1010.60
2022-11-25T10:18:06.456Z,1010.53
2022-11-25T10:19:06.461Z,1010.55
2022-11-25T10:20:06.498Z,1010.55
2022-11-25T10:21:06.530Z,1010.59
2022-11-25T10:22:06.538Z,1010.52
2022-11-25T10:23:06.557Z,1010.56
2022-11-25T10:24:06.572Z,1010.56
2022-11-25T10:25:06.609Z,1010.56
2022-11-25T10:26:06.611Z,1010.55
2022-11-25T10:27:06.613Z,1010.55
2022-11-25T10:28:06.623Z,1010.53
2022-11-25T10:29:06.645Z,1010.53
2022-11-25T10:30:06.686Z,1010.58
2022-11-25T10:31:06.735Z,1010.56
2022-11-25T10:32:06.718Z,1010.54
2022-11-25T10:33:06.716Z,1010.61
2022-11-25T10:34:06.746Z,1010.61
2022-11-25T10:35:06.768Z,1010.64
2022-11-25T10:36:06.764Z,1010.61
2022-11-25T10:37:06.767Z,1010.60
2022-11-25T10:38:06.758Z,1010.57
2022-11-25T10:39:06.786Z,1010.59
2022-11-25T10:40:06.767Z,1010.58
2022-11-25T10:41:06.771Z,1010.58
2022-11-25T10:42:06.752Z,1010.63
2022-11-25T10:43:06.768Z,1010.66
2022-11-25T10:44:06.759Z,1010.66
2022-11-25T10:45:06.768Z,1010.68
2022-11-25T10:46:06.792Z,1010.68
2022-11-25T10:47:15.106Z,1010.68
2022-11-25T10:48:07.697Z,1010.65
2022-11-25T10:49:06.680Z,1010.64
2022-11-25T10:50:06.668Z,1010.66
2022-11-25T10:51:06.659Z,1010.68
2022-11-25T10:52:06.643Z,1010.67
2022-11-25T10:53:06.635Z,1010.66
2022-11-25T10:54:06.607Z,1010.62
2022-11-25T10:55:06.647Z,1010.64
2022-11-25T10:56:06.508Z,1010.63
2022-11-25T10:57:06.508Z,1010.65
2022-11-25T10:58:06.487Z,1010.63
2022-11-25T10:59:06.475Z,1010.61
2022-11-25T11:00:06.458Z,1010.63
2022-11-25T11:01:06.455Z,1010.63
2022-11-25T11:02:06.492Z,1010.61
2022-11-25T11:03:06.562Z,1010.62
2022-11-25T11:04:06.418Z,1010.59
2022-11-25T11:05:06.433Z,1010.58
2022-11-25T11:06:06.452Z,1010.54
2022-11-25T11:07:06.456Z,1010.57
2022-11-25T11:08:06.419Z,1010.55
2022-11-25T11:09:06.457Z,1010.60
2022-11-25T11:10:06.336Z,1010.59
2022-11-25T11:11:07.169Z,1010.61
2022-11-25T11:12:06.256Z,1010.62
2022-11-25T11:13:06.239Z,1010.59
2022-11-25T11:14:06.211Z,1010.62
2022-11-25T11:15:06.225Z,1010.61
2022-11-25T11:16:06.280Z,1010.58
2022-11-25T11:17:06.171Z,1010.56
2022-11-25T11:18:06.154Z,1010.57
2022-11-25T11:19:06.138Z,1010.57
2022-11-25T11:20:06.113Z,1010.55
2022-11-25T11:21:06.108Z,1010.55
2022-11-25T11:22:06.119Z,1010.51
2022-11-25T11:23:09.110Z,1010.53
2022-11-25T11:24:06.127Z,1010.49
2022-11-25T11:25:06.117Z,1010.55
2022-11-25T11:26:06.166Z,1010.53
2022-11-25T11:27:06.052Z,1010.49
2022-11-25T11:28:06.033Z,1010.48
2022-11-25T11:29:09.802Z,1010.48
2022-11-25T11:30:06.952Z,1010.49
2022-11-25T11:31:05.987Z,1010.48
2022-11-25T11:32:05.871Z,1010.48
2022-11-25T11:33:05.864Z,1010.49
2022-11-25T11:34:05.850Z,1010.49
2022-11-25T11:35:05.839Z,1010.49
2022-11-25T11:36:05.826Z,1010.46
2022-11-25T11:37:05.807Z,1010.45
2022-11-25T11:38:05.797Z,1010.46
2022-11-25T11:39:05.787Z,1010.41
2022-11-25T11:40:05.762Z,1010.43
2022-11-25T11:41:05.780Z,1010.43
2022-11-25T11:42:05.768Z,1010.41
2022-11-25T11:43:05.785Z,1010.39
2022-11-25T11:44:05.770Z,1010.37
2022-11-25T11:45:05.763Z,1010.36
2022-11-25T11:46:05.751Z,1010.29
2022-11-25T11:47:05.773Z,1010.34
2022-11-25T11:48:05.657Z,1010.37
2022-11-25T11:49:05.647Z,1010.34
2022-11-25T11:50:05.628Z,1010.33
2022-11-25T11:51:05.621Z,1010.38
2022-11-25T11:52:05.597Z,1010.35
2022-11-25T11:53:05.597Z,1010.35
2022-11-25T11:54:05.609Z,1010.39
2022-11-25T11:55:05.598Z,1010.40
2022-11-25T11:56:33.803Z,1010.36
2022-11-25T11:57:06.528Z,1010.34
2022-11-25T11:58:05.517Z,1010.35
2022-11-25T11:59:05.511Z,1010.34
2022-11-25T12:00:05.518Z,1010.29
2022-11-25T12:01:05.512Z,1010.25
2022-11-25T12:02:05.768Z,1010.25
2022-11-25T12:03:05.626Z,1010.30
2022-11-25T12:04:05.425Z,1010.29
2022-11-25T12:05:05.444Z,1010.27
2022-11-25T12:06:05.438Z,1010.26
2022-11-25T12:07:05.437Z,1010.28